sensor_id;sensor_type;location;lat;lon;timestamp;temperature;humidity
20690;DHT22;10504;48.762;8.996;2023-11-19T00:00:17;7.00;99.90
20690;DHT22;10504;48.762;8.996;2023-11-19T00:02:42;7.00;99.90
20690;DHT22;10504;48.762;8.996;2023-11-19T00:05:09;7.00;99.90
20690;DHT22;10504;48.762;8.996;2023-11-19T00:07:37;7.00;99.90
20690;DHT22;10504;48.762;8.996;2023-11-19T00:10:13;7.00;99.90
20690;DHT22;10504;48.762;8.996;2023-11-19T00:12:44;7.10;99.90
20690;DHT22;10504;48.762;8.996;2023-11-19T00:15:10;7.10;99.90
20690;DHT22;10504;48.762;8.996;2023-11-19T00:17:40;7.10;99.90
20690;DHT22;10504;48.762;8.996;2023-11-19T00:20:08;7.10;99.90
20690;DHT22;10504;48.762;8.996;2023-11-19T00:22:33;7.10;99.90
20690;DHT22;10504;48.762;8.996;2023-11-19T00:24:59;7.20;99.90
20690;DHT22;10504;48.762;8.996;2023-11-19T00:27:25;7.30;99.90
20690;DHT22;10504;48.762;8.996;2023-11-19T00:29:51;7.40;99.90
20690;DHT22;10504;48.762;8.996;2023-11-19T00:32:17;7.40;99.90
20690;DHT22;10504;48.762;8.996;2023-11-19T00:34:45;7.40;99.90
20690;DHT22;10504;48.762;8.996;2023-11-19T00:37:13;7.40;99.90
20690;DHT22;10504;48.762;8.996;2023-11-19T00:39:39;7.50;99.90
20690;DHT22;10504;48.762;8.996;2023-11-19T00:42:04;7.50;99.90
20690;DHT22;10504;48.762;8.996;2023-11-19T00:44:30;7.50;99.90
20690;DHT22;10504;48.762;8.996;2023-11-19T00:46:56;7.50;99.90
20690;DHT22;10504;48.762;8.996;2023-11-19T00:49:22;7.50;99.90
20690;DHT22;10504;48.762;8.996;2023-11-19T00:51:47;7.60;99.90
20690;DHT22;10504;48.762;8.996;2023-11-19T00:54:13;7.60;99.90
20690;DHT22;10504;48.762;8.996;2023-11-19T00:56:38;7.50;99.90
20690;DHT22;10504;48.762;8.996;2023-11-19T00:59:05;7.60;99.90
20690;DHT22;10504;48.762;8.996;2023-11-19T01:01:31;7.50;99.90
20690;DHT22;10504;48.762;8.996;2023-11-19T01:03:56;7.60;99.90
20690;DHT22;10504;48.762;8.996;2023-11-19T01:06:31;7.60;99.90
20690;DHT22;10504;48.762;8.996;2023-11-19T01:08:57;7.60;99.90
20690;DHT22;10504;48.762;8.996;2023-11-19T01:11:24;7.60;99.90
20690;DHT22;10504;48.762;8.996;2023-11-19T01:13:50;7.60;99.90
20690;DHT22;10504;48.762;8.996;2023-11-19T01:16:16;7.60;99.90
20690;DHT22;10504;48.762;8.996;2023-11-19T01:18:42;7.60;99.90
20690;DHT22;10504;48.762;8.996;2023-11-19T01:21:08;7.70;99.90
20690;DHT22;10504;48.762;8.996;2023-11-19T01:23:34;7.60;99.90
20690;DHT22;10504;48.762;8.996;2023-11-19T01:26:00;7.70;99.90
20690;DHT22;10504;48.762;8.996;2023-11-19T01:28:26;7.70;99.90
20690;DHT22;10504;48.762;8.996;2023-11-19T01:30:52;7.70;99.90
20690;DHT22;10504;48.762;8.996;2023-11-19T01:33:17;7.70;99.90
20690;DHT22;10504;48.762;8.996;2023-11-19T01:35:43;7.70;99.90
20690;DHT22;10504;48.762;8.996;2023-11-19T01:38:08;7.70;99.90
20690;DHT22;10504;48.762;8.996;2023-11-19T01:40:34;7.70;99.90
20690;DHT22;10504;48.762;8.996;2023-11-19T01:43:02;7.70;99.90
20690;DHT22;10504;48.762;8.996;2023-11-19T01:45:30;7.70;99.90
20690;DHT22;10504;48.762;8.996;2023-11-19T01:48:02;7.80;99.90
20690;DHT22;10504;48.762;8.996;2023-11-19T01:50:32;7.80;99.90
20690;DHT22;10504;48.762;8.996;2023-11-19T01:52:58;7.80;99.90
20690;DHT22;10504;48.762;8.996;2023-11-19T01:55:25;7.80;99.90
20690;DHT22;10504;48.762;8.996;2023-11-19T01:57:54;7.80;99.90
20690;DHT22;10504;48.762;8.996;2023-11-19T02:00:24;7.80;99.90
20690;DHT22;10504;48.762;8.996;2023-11-19T02:02:50;7.90;99.90
20690;DHT22;10504;48.762;8.996;2023-11-19T02:05:17;7.90;99.90
20690;DHT22;10504;48.762;8.996;2023-11-19T02:07:43;7.90;99.90
20690;DHT22;10504;48.762;8.996;2023-11-19T02:10:09;7.90;99.90
20690;DHT22;10504;48.762;8.996;2023-11-19T02:12:40;8.10;99.90
20690;DHT22;10504;48.762;8.996;2023-11-19T02:15:09;8.00;99.90
20690;DHT22;10504;48.762;8.996;2023-11-19T02:17:35;8.10;99.90
20690;DHT22;10504;48.762;8.996;2023-11-19T02:20:06;8.20;99.90
20690;DHT22;10504;48.762;8.996;2023-11-19T02:22:36;8.30;99.90
20690;DHT22;10504;48.762;8.996;2023-11-19T02:25:06;8.30;99.90
20690;DHT22;10504;48.762;8.996;2023-11-19T02:27:53;8.40;99.90
20690;DHT22;10504;48.762;8.996;2023-11-19T02:30:23;8.40;99.90
20690;DHT22;10504;48.762;8.996;2023-11-19T02:32:52;8.40;99.90
20690;DHT22;10504;48.762;8.996;2023-11-19T02:35:19;8.40;99.90
20690;DHT22;10504;48.762;8.996;2023-11-19T02:37:47;8.50;99.90
20690;DHT22;10504;48.762;8.996;2023-11-19T02:40:13;8.50;99.90
20690;DHT22;10504;48.762;8.996;2023-11-19T02:42:38;8.50;99.90
20690;DHT22;10504;48.762;8.996;2023-11-19T02:45:04;8.60;99.90
20690;DHT22;10504;48.762;8.996;2023-11-19T02:47:33;8.60;99.90
20690;DHT22;10504;48.762;8.996;2023-11-19T02:49:59;8.60;99.90
20690;DHT22;10504;48.762;8.996;2023-11-19T02:52:25;8.70;99.90
20690;DHT22;10504;48.762;8.996;2023-11-19T02:54:51;8.60;99.90
20690;DHT22;10504;48.762;8.996;2023-11-19T02:57:17;8.60;99.90
20690;DHT22;10504;48.762;8.996;2023-11-19T02:59:45;8.70;99.90
20690;DHT22;10504;48.762;8.996;2023-11-19T03:02:11;8.60;99.90
20690;DHT22;10504;48.762;8.996;2023-11-19T03:04:38;8.70;99.90
20690;DHT22;10504;48.762;8.996;2023-11-19T03:07:09;8.70;99.90
20690;DHT22;10504;48.762;8.996;2023-11-19T03:09:35;8.70;99.90
20690;DHT22;10504;48.762;8.996;2023-11-19T03:12:01;8.70;99.90
20690;DHT22;10504;48.762;8.996;2023-11-19T03:14:27;8.70;99.90
20690;DHT22;10504;48.762;8.996;2023-11-19T03:16:53;8.80;99.90
20690;DHT22;10504;48.762;8.996;2023-11-19T03:19:19;8.80;99.90
20690;DHT22;10504;48.762;8.996;2023-11-19T03:21:44;8.80;99.90
20690;DHT22;10504;48.762;8.996;2023-11-19T03:24:12;8.80;99.90
20690;DHT22;10504;48.762;8.996;2023-11-19T03:26:38;8.80;99.90
20690;DHT22;10504;48.762;8.996;2023-11-19T03:29:04;8.80;99.90
20690;DHT22;10504;48.762;8.996;2023-11-19T03:31:30;8.80;99.90
20690;DHT22;10504;48.762;8.996;2023-11-19T03:33:55;8.80;99.90
20690;DHT22;10504;48.762;8.996;2023-11-19T03:36:21;8.90;99.90
20690;DHT22;10504;48.762;8.996;2023-11-19T03:38:47;8.90;99.90
20690;DHT22;10504;48.762;8.996;2023-11-19T03:41:14;9.00;99.90
20690;DHT22;10504;48.762;8.996;2023-11-19T03:43:40;9.10;99.90
20690;DHT22;10504;48.762;8.996;2023-11-19T03:46:19;9.00;99.90
20690;DHT22;10504;48.762;8.996;2023-11-19T03:48:46;9.00;99.90
20690;DHT22;10504;48.762;8.996;2023-11-19T03:51:12;9.00;99.90
20690;DHT22;10504;48.762;8.996;2023-11-19T03:53:49;9.00;99.90
20690;DHT22;10504;48.762;8.996;2023-11-19T03:56:15;9.10;99.90
20690;DHT22;10504;48.762;8.996;2023-11-19T03:58:40;9.00;99.90
20690;DHT22;10504;48.762;8.996;2023-11-19T04:01:11;9.00;99.90
20690;DHT22;10504;48.762;8.996;2023-11-19T04:03:38;9.00;99.90
20690;DHT22;10504;48.762;8.996;2023-11-19T04:06:04;8.90;99.90
20690;DHT22;10504;48.762;8.996;2023-11-19T04:08:30;8.90;99.90
20690;DHT22;10504;48.762;8.996;2023-11-19T04:10:55;8.90;99.90
20690;DHT22;10504;48.762;8.996;2023-11-19T04:13:21;8.90;99.90
20690;DHT22;10504;48.762;8.996;2023-11-19T04:15:49;8.90;99.90
20690;DHT22;10504;48.762;8.996;2023-11-19T04:18:15;8.90;99.90
20690;DHT22;10504;48.762;8.996;2023-11-19T04:20:40;8.90;99.90
20690;DHT22;10504;48.762;8.996;2023-11-19T04:23:08;8.90;99.90
20690;DHT22;10504;48.762;8.996;2023-11-19T04:25:34;8.90;99.90
20690;DHT22;10504;48.762;8.996;2023-11-19T04:28:00;8.90;99.90
20690;DHT22;10504;48.762;8.996;2023-11-19T04:30:26;8.90;99.90
20690;DHT22;10504;48.762;8.996;2023-11-19T04:32:51;8.90;99.90
20690;DHT22;10504;48.762;8.996;2023-11-19T04:35:17;8.90;99.90
20690;DHT22;10504;48.762;8.996;2023-11-19T04:37:44;9.00;99.90
20690;DHT22;10504;48.762;8.996;2023-11-19T04:40:10;8.90;99.90
20690;DHT22;10504;48.762;8.996;2023-11-19T04:42:37;8.90;99.90
20690;DHT22;10504;48.762;8.996;2023-11-19T04:45:06;8.90;99.90
20690;DHT22;10504;48.762;8.996;2023-11-19T04:47:32;9.00;99.90
20690;DHT22;10504;48.762;8.996;2023-11-19T04:49:58;9.00;99.90
20690;DHT22;10504;48.762;8.996;2023-11-19T04:52:24;9.00;99.90
20690;DHT22;10504;48.762;8.996;2023-11-19T04:54:50;9.00;99.90
20690;DHT22;10504;48.762;8.996;2023-11-19T04:57:16;9.00;99.90
20690;DHT22;10504;48.762;8.996;2023-11-19T04:59:42;9.00;99.90
20690;DHT22;10504;48.762;8.996;2023-11-19T05:02:08;9.00;99.90
20690;DHT22;10504;48.762;8.996;2023-11-19T05:04:34;9.10;99.90
20690;DHT22;10504;48.762;8.996;2023-11-19T05:07:00;9.00;99.90
20690;DHT22;10504;48.762;8.996;2023-11-19T05:09:26;9.10;99.90
20690;DHT22;10504;48.762;8.996;2023-11-19T05:11:52;9.10;99.90
20690;DHT22;10504;48.762;8.996;2023-11-19T05:14:17;9.10;99.90
20690;DHT22;10504;48.762;8.996;2023-11-19T05:16:45;9.10;99.90
20690;DHT22;10504;48.762;8.996;2023-11-19T05:19:11;9.10;99.90
20690;DHT22;10504;48.762;8.996;2023-11-19T05:21:36;9.10;99.90
20690;DHT22;10504;48.762;8.996;2023-11-19T05:24:02;9.10;99.90
20690;DHT22;10504;48.762;8.996;2023-11-19T05:26:31;9.20;99.90
20690;DHT22;10504;48.762;8.996;2023-11-19T05:28:57;9.20;99.90
20690;DHT22;10504;48.762;8.996;2023-11-19T05:31:22;9.20;99.90
20690;DHT22;10504;48.762;8.996;2023-11-19T05:33:48;9.20;99.90
20690;DHT22;10504;48.762;8.996;2023-11-19T05:36:14;9.20;99.90
20690;DHT22;10504;48.762;8.996;2023-11-19T05:38:40;9.20;99.90
20690;DHT22;10504;48.762;8.996;2023-11-19T05:41:06;9.20;99.90
20690;DHT22;10504;48.762;8.996;2023-11-19T05:43:32;9.20;99.90
20690;DHT22;10504;48.762;8.996;2023-11-19T05:45:57;9.20;99.90
20690;DHT22;10504;48.762;8.996;2023-11-19T05:48:25;9.20;99.90
20690;DHT22;10504;48.762;8.996;2023-11-19T05:50:51;9.20;99.90
20690;DHT22;10504;48.762;8.996;2023-11-19T05:53:20;9.20;99.90
20690;DHT22;10504;48.762;8.996;2023-11-19T05:55:45;9.20;99.90
20690;DHT22;10504;48.762;8.996;2023-11-19T05:58:15;9.20;99.90
20690;DHT22;10504;48.762;8.996;2023-11-19T06:00:41;9.20;99.90
20690;DHT22;10504;48.762;8.996;2023-11-19T06:03:10;9.20;99.90
20690;DHT22;10504;48.762;8.996;2023-11-19T06:05:35;9.20;99.90
20690;DHT22;10504;48.762;8.996;2023-11-19T06:08:01;9.20;99.90
20690;DHT22;10504;48.762;8.996;2023-11-19T06:10:27;9.20;99.90
20690;DHT22;10504;48.762;8.996;2023-11-19T06:12:59;9.20;99.90
20690;DHT22;10504;48.762;8.996;2023-11-19T06:15:28;9.20;99.90
20690;DHT22;10504;48.762;8.996;2023-11-19T06:17:54;9.20;99.90
20690;DHT22;10504;48.762;8.996;2023-11-19T06:20:20;9.30;99.90
20690;DHT22;10504;48.762;8.996;2023-11-19T06:22:46;9.20;99.90
20690;DHT22;10504;48.762;8.996;2023-11-19T06:25:12;9.30;99.90
20690;DHT22;10504;48.762;8.996;2023-11-19T06:27:41;9.30;99.90
20690;DHT22;10504;48.762;8.996;2023-11-19T06:30:07;9.30;99.90
20690;DHT22;10504;48.762;8.996;2023-11-19T06:32:33;9.30;99.90
20690;DHT22;10504;48.762;8.996;2023-11-19T06:34:58;9.20;99.90
20690;DHT22;10504;48.762;8.996;2023-11-19T06:37:24;9.30;99.90
20690;DHT22;10504;48.762;8.996;2023-11-19T06:39:49;9.30;99.90
20690;DHT22;10504;48.762;8.996;2023-11-19T06:42:15;9.20;99.90
20690;DHT22;10504;48.762;8.996;2023-11-19T06:44:41;9.20;99.90
20690;DHT22;10504;48.762;8.996;2023-11-19T06:47:06;9.20;99.90
20690;DHT22;10504;48.762;8.996;2023-11-19T06:49:32;9.20;99.90
20690;DHT22;10504;48.762;8.996;2023-11-19T06:51:58;9.30;99.90
20690;DHT22;10504;48.762;8.996;2023-11-19T06:54:24;9.30;99.90
20690;DHT22;10504;48.762;8.996;2023-11-19T06:56:49;9.20;99.90
20690;DHT22;10504;48.762;8.996;2023-11-19T06:59:15;9.20;99.90
20690;DHT22;10504;48.762;8.996;2023-11-19T07:01:41;9.20;99.90
20690;DHT22;10504;48.762;8.996;2023-11-19T07:04:13;9.20;99.90
20690;DHT22;10504;48.762;8.996;2023-11-19T07:06:39;9.20;99.90
20690;DHT22;10504;48.762;8.996;2023-11-19T07:09:07;9.20;99.90
20690;DHT22;10504;48.762;8.996;2023-11-19T07:11:40;9.20;99.90
20690;DHT22;10504;48.762;8.996;2023-11-19T07:14:06;9.20;99.90
20690;DHT22;10504;48.762;8.996;2023-11-19T07:16:33;9.20;99.90
20690;DHT22;10504;48.762;8.996;2023-11-19T07:19:05;9.20;99.90
20690;DHT22;10504;48.762;8.996;2023-11-19T07:21:32;9.20;99.90
20690;DHT22;10504;48.762;8.996;2023-11-19T07:23:59;9.30;99.90
20690;DHT22;10504;48.762;8.996;2023-11-19T07:26:25;9.20;99.90
20690;DHT22;10504;48.762;8.996;2023-11-19T07:28:50;9.30;99.90
20690;DHT22;10504;48.762;8.996;2023-11-19T07:31:16;9.30;99.90
20690;DHT22;10504;48.762;8.996;2023-11-19T07:33:47;9.30;99.90
20690;DHT22;10504;48.762;8.996;2023-11-19T07:36:13;9.30;99.90
20690;DHT22;10504;48.762;8.996;2023-11-19T07:38:39;9.40;99.90
20690;DHT22;10504;48.762;8.996;2023-11-19T07:41:05;9.40;99.90
20690;DHT22;10504;48.762;8.996;2023-11-19T07:43:32;9.40;99.90
20690;DHT22;10504;48.762;8.996;2023-11-19T07:45:57;9.40;99.90
20690;DHT22;10504;48.762;8.996;2023-11-19T07:48:25;9.40;99.90
20690;DHT22;10504;48.762;8.996;2023-11-19T07:50:52;9.50;99.90
20690;DHT22;10504;48.762;8.996;2023-11-19T07:53:19;9.40;99.90
20690;DHT22;10504;48.762;8.996;2023-11-19T07:55:45;9.50;99.90
20690;DHT22;10504;48.762;8.996;2023-11-19T07:58:11;9.50;99.90
20690;DHT22;10504;48.762;8.996;2023-11-19T08:00:40;9.50;99.90
20690;DHT22;10504;48.762;8.996;2023-11-19T08:03:06;9.50;99.90
20690;DHT22;10504;48.762;8.996;2023-11-19T08:05:31;9.50;99.90
20690;DHT22;10504;48.762;8.996;2023-11-19T08:07:57;9.40;99.90
20690;DHT22;10504;48.762;8.996;2023-11-19T08:10:24;9.50;99.90
20690;DHT22;10504;48.762;8.996;2023-11-19T08:12:49;9.60;99.90
20690;DHT22;10504;48.762;8.996;2023-11-19T08:15:15;9.60;99.90
20690;DHT22;10504;48.762;8.996;2023-11-19T08:17:41;9.60;99.90
20690;DHT22;10504;48.762;8.996;2023-11-19T08:20:09;9.60;99.90
20690;DHT22;10504;48.762;8.996;2023-11-19T08:22:38;9.60;99.90
20690;DHT22;10504;48.762;8.996;2023-11-19T08:25:07;9.70;99.90
20690;DHT22;10504;48.762;8.996;2023-11-19T08:27:33;9.70;99.90
20690;DHT22;10504;48.762;8.996;2023-11-19T08:29:59;9.70;99.90
20690;DHT22;10504;48.762;8.996;2023-11-19T08:32:25;9.70;99.90
20690;DHT22;10504;48.762;8.996;2023-11-19T08:34:51;9.70;99.90
20690;DHT22;10504;48.762;8.996;2023-11-19T08:37:17;9.70;99.90
20690;DHT22;10504;48.762;8.996;2023-11-19T08:39:47;9.80;99.90
20690;DHT22;10504;48.762;8.996;2023-11-19T08:42:13;9.80;99.90
20690;DHT22;10504;48.762;8.996;2023-11-19T08:44:39;9.90;99.90
20690;DHT22;10504;48.762;8.996;2023-11-19T08:47:09;9.80;99.90
20690;DHT22;10504;48.762;8.996;2023-11-19T08:49:35;9.80;99.90
20690;DHT22;10504;48.762;8.996;2023-11-19T08:52:00;9.90;99.90
20690;DHT22;10504;48.762;8.996;2023-11-19T08:54:26;9.90;99.90
20690;DHT22;10504;48.762;8.996;2023-11-19T08:56:52;9.80;99.90
20690;DHT22;10504;48.762;8.996;2023-11-19T08:59:18;9.90;99.90
20690;DHT22;10504;48.762;8.996;2023-11-19T09:01:44;9.90;99.90
20690;DHT22;10504;48.762;8.996;2023-11-19T09:04:10;9.90;99.90
20690;DHT22;10504;48.762;8.996;2023-11-19T09:06:36;9.90;99.90
20690;DHT22;10504;48.762;8.996;2023-11-19T09:09:02;9.90;99.90
20690;DHT22;10504;48.762;8.996;2023-11-19T09:11:31;10.00;99.90
20690;DHT22;10504;48.762;8.996;2023-11-19T09:13:57;10.00;99.90
20690;DHT22;10504;48.762;8.996;2023-11-19T09:16:23;10.10;99.90
20690;DHT22;10504;48.762;8.996;2023-11-19T09:18:49;10.10;99.90
20690;DHT22;10504;48.762;8.996;2023-11-19T09:21:15;10.10;99.90
20690;DHT22;10504;48.762;8.996;2023-11-19T09:23:41;10.10;99.90
20690;DHT22;10504;48.762;8.996;2023-11-19T09:26:08;10.20;99.90
20690;DHT22;10504;48.762;8.996;2023-11-19T09:28:35;10.20;99.90
20690;DHT22;10504;48.762;8.996;2023-11-19T09:31:01;10.20;99.90
20690;DHT22;10504;48.762;8.996;2023-11-19T09:33:30;10.20;99.90
20690;DHT22;10504;48.762;8.996;2023-11-19T09:35:55;10.30;99.90
20690;DHT22;10504;48.762;8.996;2023-11-19T09:38:21;10.30;99.90
20690;DHT22;10504;48.762;8.996;2023-11-19T09:40:47;10.50;99.90
20690;DHT22;10504;48.762;8.996;2023-11-19T09:43:14;10.50;99.90
20690;DHT22;10504;48.762;8.996;2023-11-19T09:45:50;10.50;99.90
20690;DHT22;10504;48.762;8.996;2023-11-19T09:48:19;10.60;99.90
20690;DHT22;10504;48.762;8.996;2023-11-19T09:50:48;10.70;99.90
20690;DHT22;10504;48.762;8.996;2023-11-19T09:53:18;10.70;99.90
20690;DHT22;10504;48.762;8.996;2023-11-19T09:55:45;10.70;99.90
20690;DHT22;10504;48.762;8.996;2023-11-19T09:58:17;10.80;99.90
20690;DHT22;10504;48.762;8.996;2023-11-19T10:00:43;10.90;99.90
20690;DHT22;10504;48.762;8.996;2023-11-19T10:03:11;10.90;99.90
20690;DHT22;10504;48.762;8.996;2023-11-19T10:05:37;10.90;99.90
20690;DHT22;10504;48.762;8.996;2023-11-19T10:08:04;10.90;99.90
20690;DHT22;10504;48.762;8.996;2023-11-19T10:10:30;11.00;99.90
20690;DHT22;10504;48.762;8.996;2023-11-19T10:12:58;11.10;99.90
20690;DHT22;10504;48.762;8.996;2023-11-19T10:15:26;11.10;99.90
20690;DHT22;10504;48.762;8.996;2023-11-19T10:17:56;11.10;99.90
20690;DHT22;10504;48.762;8.996;2023-11-19T10:20:22;11.10;99.90
20690;DHT22;10504;48.762;8.996;2023-11-19T10:22:47;11.10;99.90
20690;DHT22;10504;48.762;8.996;2023-11-19T10:25:24;11.10;99.90
20690;DHT22;10504;48.762;8.996;2023-11-19T10:27:51;11.10;99.90
20690;DHT22;10504;48.762;8.996;2023-11-19T10:30:34;11.10;99.90
20690;DHT22;10504;48.762;8.996;2023-11-19T10:33:10;11.10;99.90
20690;DHT22;10504;48.762;8.996;2023-11-19T10:35:54;11.10;99.90
20690;DHT22;10504;48.762;8.996;2023-11-19T10:38:20;11.10;99.90
20690;DHT22;10504;48.762;8.996;2023-11-19T10:40:50;11.10;99.90
20690;DHT22;10504;48.762;8.996;2023-11-19T10:43:22;11.20;99.90
20690;DHT22;10504;48.762;8.996;2023-11-19T10:45:48;11.20;99.90
20690;DHT22;10504;48.762;8.996;2023-11-19T10:48:14;11.30;99.90
20690;DHT22;10504;48.762;8.996;2023-11-19T10:50:41;11.30;99.90
20690;DHT22;10504;48.762;8.996;2023-11-19T10:53:08;11.30;99.90
20690;DHT22;10504;48.762;8.996;2023-11-19T10:55:37;11.40;99.90
20690;DHT22;10504;48.762;8.996;2023-11-19T10:58:07;11.40;99.90
20690;DHT22;10504;48.762;8.996;2023-11-19T11:00:57;11.40;99.90
20690;DHT22;10504;48.762;8.996;2023-11-19T11:03:29;11.40;99.90
20690;DHT22;10504;48.762;8.996;2023-11-19T11:05:56;11.40;99.90
20690;DHT22;10504;48.762;8.996;2023-11-19T11:08:23;11.50;99.90
20690;DHT22;10504;48.762;8.996;2023-11-19T11:10:53;11.40;99.90
20690;DHT22;10504;48.762;8.996;2023-11-19T11:13:22;11.30;99.90
20690;DHT22;10504;48.762;8.996;2023-11-19T11:15:49;11.30;99.90
20690;DHT22;10504;48.762;8.996;2023-11-19T11:18:15;11.40;99.90
20690;DHT22;10504;48.762;8.996;2023-11-19T11:20:44;11.30;99.90
20690;DHT22;10504;48.762;8.996;2023-11-19T11:39:46;11.30;99.90
20690;DHT22;10504;48.762;8.996;2023-11-19T11:45:03;11.40;99.90
20690;DHT22;10504;48.762;8.996;2023-11-19T11:55:25;11.50;99.90
20690;DHT22;10504;48.762;8.996;2023-11-19T11:57:51;11.60;99.90
20690;DHT22;10504;48.762;8.996;2023-11-19T12:03:02;11.60;99.90
20690;DHT22;10504;48.762;8.996;2023-11-19T12:05:33;11.70;99.90
20690;DHT22;10504;48.762;8.996;2023-11-19T12:08:03;11.70;99.90
20690;DHT22;10504;48.762;8.996;2023-11-19T12:10:51;11.70;99.90
20690;DHT22;10504;48.762;8.996;2023-11-19T12:13:18;11.80;99.90
20690;DHT22;10504;48.762;8.996;2023-11-19T12:16:08;11.70;99.90
20690;DHT22;10504;48.762;8.996;2023-11-19T12:18:33;11.70;99.90
20690;DHT22;10504;48.762;8.996;2023-11-19T12:21:00;11.70;99.90
20690;DHT22;10504;48.762;8.996;2023-11-19T12:23:29;11.80;99.90
20690;DHT22;10504;48.762;8.996;2023-11-19T12:25:55;11.80;99.90
20690;DHT22;10504;48.762;8.996;2023-11-19T12:28:21;11.90;99.90
20690;DHT22;10504;48.762;8.996;2023-11-19T12:30:52;12.00;99.90
20690;DHT22;10504;48.762;8.996;2023-11-19T12:33:19;12.20;99.90
20690;DHT22;10504;48.762;8.996;2023-11-19T12:35:48;12.20;99.90
20690;DHT22;10504;48.762;8.996;2023-11-19T12:38:21;12.20;99.90
20690;DHT22;10504;48.762;8.996;2023-11-19T12:40:47;12.30;99.90
20690;DHT22;10504;48.762;8.996;2023-11-19T12:43:22;12.30;99.90
20690;DHT22;10504;48.762;8.996;2023-11-19T12:45:48;12.30;99.90
20690;DHT22;10504;48.762;8.996;2023-11-19T12:48:13;12.30;99.90
20690;DHT22;10504;48.762;8.996;2023-11-19T12:50:58;12.40;99.90
20690;DHT22;10504;48.762;8.996;2023-11-19T12:53:28;12.40;99.90
20690;DHT22;10504;48.762;8.996;2023-11-19T12:55:54;12.40;99.90
20690;DHT22;10504;48.762;8.996;2023-11-19T12:58:35;12.50;99.90
20690;DHT22;10504;48.762;8.996;2023-11-19T13:01:05;12.60;99.90
20690;DHT22;10504;48.762;8.996;2023-11-19T13:03:35;12.60;99.90
20690;DHT22;10504;48.762;8.996;2023-11-19T13:06:05;12.60;99.90
20690;DHT22;10504;48.762;8.996;2023-11-19T13:08:49;12.70;99.90
20690;DHT22;10504;48.762;8.996;2023-11-19T13:11:34;12.70;99.90
20690;DHT22;10504;48.762;8.996;2023-11-19T13:14:04;12.70;99.90
20690;DHT22;10504;48.762;8.996;2023-11-19T13:16:30;12.70;99.90
20690;DHT22;10504;48.762;8.996;2023-11-19T13:18:57;12.60;99.90
20690;DHT22;10504;48.762;8.996;2023-11-19T13:21:23;12.60;99.90
20690;DHT22;10504;48.762;8.996;2023-11-19T13:23:49;12.60;99.90
20690;DHT22;10504;48.762;8.996;2023-11-19T13:26:15;12.60;99.90
20690;DHT22;10504;48.762;8.996;2023-11-19T13:28:41;12.50;99.90
20690;DHT22;10504;48.762;8.996;2023-11-19T13:31:09;12.50;99.90
20690;DHT22;10504;48.762;8.996;2023-11-19T13:33:36;12.50;99.90
20690;DHT22;10504;48.762;8.996;2023-11-19T13:36:02;12.50;99.90
20690;DHT22;10504;48.762;8.996;2023-11-19T13:38:34;12.60;99.90
20690;DHT22;10504;48.762;8.996;2023-11-19T13:41:03;12.50;99.90
20690;DHT22;10504;48.762;8.996;2023-11-19T13:43:34;12.40;99.90
20690;DHT22;10504;48.762;8.996;2023-11-19T13:46:00;12.30;99.90
20690;DHT22;10504;48.762;8.996;2023-11-19T13:48:25;12.30;99.90
20690;DHT22;10504;48.762;8.996;2023-11-19T13:50:52;12.40;99.90
20690;DHT22;10504;48.762;8.996;2023-11-19T13:53:22;12.40;99.90
20690;DHT22;10504;48.762;8.996;2023-11-19T13:55:48;12.30;99.90
20690;DHT22;10504;48.762;8.996;2023-11-19T13:58:14;12.30;99.90
20690;DHT22;10504;48.762;8.996;2023-11-19T14:00:39;12.30;99.90
20690;DHT22;10504;48.762;8.996;2023-11-19T14:03:07;12.30;99.90
20690;DHT22;10504;48.762;8.996;2023-11-19T14:05:33;12.20;99.90
20690;DHT22;10504;48.762;8.996;2023-11-19T14:07:58;12.20;99.90
20690;DHT22;10504;48.762;8.996;2023-11-19T14:10:24;12.20;99.90
20690;DHT22;10504;48.762;8.996;2023-11-19T14:12:50;12.20;99.90
20690;DHT22;10504;48.762;8.996;2023-11-19T14:15:18;12.20;99.90
20690;DHT22;10504;48.762;8.996;2023-11-19T14:17:44;12.20;99.90
20690;DHT22;10504;48.762;8.996;2023-11-19T14:20:10;12.20;99.90
20690;DHT22;10504;48.762;8.996;2023-11-19T14:22:42;12.20;99.90
20690;DHT22;10504;48.762;8.996;2023-11-19T14:25:09;12.10;99.90
20690;DHT22;10504;48.762;8.996;2023-11-19T14:27:38;12.00;99.90
20690;DHT22;10504;48.762;8.996;2023-11-19T14:30:06;12.00;99.90
20690;DHT22;10504;48.762;8.996;2023-11-19T14:32:32;12.00;99.90
20690;DHT22;10504;48.762;8.996;2023-11-19T14:34:58;11.90;99.90
20690;DHT22;10504;48.762;8.996;2023-11-19T14:37:24;11.90;99.90
20690;DHT22;10504;48.762;8.996;2023-11-19T14:39:49;11.90;99.90
20690;DHT22;10504;48.762;8.996;2023-11-19T14:42:17;12.00;99.90
20690;DHT22;10504;48.762;8.996;2023-11-19T14:44:43;12.00;99.90
20690;DHT22;10504;48.762;8.996;2023-11-19T14:47:09;11.90;99.90
20690;DHT22;10504;48.762;8.996;2023-11-19T14:49:35;12.00;99.90
20690;DHT22;10504;48.762;8.996;2023-11-19T14:52:03;12.00;99.90
20690;DHT22;10504;48.762;8.996;2023-11-19T14:54:28;12.10;99.90
20690;DHT22;10504;48.762;8.996;2023-11-19T14:56:54;12.10;99.90
20690;DHT22;10504;48.762;8.996;2023-11-19T14:59:20;11.90;99.90
20690;DHT22;10504;48.762;8.996;2023-11-19T15:01:46;11.90;99.90
20690;DHT22;10504;48.762;8.996;2023-11-19T15:04:12;12.00;99.90
20690;DHT22;10504;48.762;8.996;2023-11-19T15:06:37;11.90;99.90
20690;DHT22;10504;48.762;8.996;2023-11-19T15:09:04;11.80;99.90
20690;DHT22;10504;48.762;8.996;2023-11-19T15:11:30;11.80;99.90
20690;DHT22;10504;48.762;8.996;2023-11-19T15:13:56;11.70;99.90
20690;DHT22;10504;48.762;8.996;2023-11-19T15:16:22;11.60;99.90
20690;DHT22;10504;48.762;8.996;2023-11-19T15:18:57;11.50;99.90
20690;DHT22;10504;48.762;8.996;2023-11-19T15:21:25;11.50;99.90
20690;DHT22;10504;48.762;8.996;2023-11-19T15:23:52;11.60;99.90
20690;DHT22;10504;48.762;8.996;2023-11-19T15:26:18;11.60;99.90
20690;DHT22;10504;48.762;8.996;2023-11-19T15:28:44;11.50;99.90
20690;DHT22;10504;48.762;8.996;2023-11-19T15:31:10;11.50;99.90
20690;DHT22;10504;48.762;8.996;2023-11-19T15:33:36;11.60;99.90
20690;DHT22;10504;48.762;8.996;2023-11-19T15:36:01;11.50;99.90
20690;DHT22;10504;48.762;8.996;2023-11-19T15:38:33;11.40;99.90
20690;DHT22;10504;48.762;8.996;2023-11-19T15:40:59;11.40;99.90
20690;DHT22;10504;48.762;8.996;2023-11-19T15:43:25;11.40;99.90
20690;DHT22;10504;48.762;8.996;2023-11-19T15:45:50;11.30;99.90
20690;DHT22;10504;48.762;8.996;2023-11-19T15:48:16;11.20;99.90
20690;DHT22;10504;48.762;8.996;2023-11-19T15:50:43;11.20;99.90
20690;DHT22;10504;48.762;8.996;2023-11-19T15:53:10;11.20;99.90
20690;DHT22;10504;48.762;8.996;2023-11-19T15:55:37;11.20;99.90
20690;DHT22;10504;48.762;8.996;2023-11-19T15:58:03;11.20;99.90
20690;DHT22;10504;48.762;8.996;2023-11-19T16:00:29;11.20;99.90
20690;DHT22;10504;48.762;8.996;2023-11-19T16:02:55;11.20;99.90
20690;DHT22;10504;48.762;8.996;2023-11-19T16:05:22;11.20;99.90
20690;DHT22;10504;48.762;8.996;2023-11-19T16:07:49;11.10;99.90
20690;DHT22;10504;48.762;8.996;2023-11-19T16:10:15;11.10;99.90